createdAt,value
2022-09-03T00:02:10.820Z,0
2022-09-03T00:08:30.768Z,0
2022-09-03T00:14:53.767Z,0
2022-09-03T00:21:13.729Z,0
2022-09-03T00:27:36.797Z,0
2022-09-03T00:33:56.735Z,0
2022-09-03T00:40:19.744Z,0
2022-09-03T00:46:39.806Z,0
2022-09-03T00:53:02.844Z,0
2022-09-03T00:59:22.759Z,0
2022-09-03T01:05:45.728Z,0
2022-09-03T01:12:05.765Z,0
2022-09-03T01:18:28.775Z,0
2022-09-03T01:24:48.800Z,0
2022-09-03T01:31:11.838Z,0
2022-09-03T01:37:31.759Z,0
2022-09-03T01:43:54.770Z,0
2022-09-03T01:50:14.740Z,0
2022-09-03T01:56:37.787Z,0
2022-09-03T02:02:57.796Z,0
2022-09-03T02:09:20.754Z,0
2022-09-03T02:15:40.837Z,0
2022-09-03T02:22:03.761Z,0
2022-09-03T02:28:23.830Z,0
2022-09-03T02:34:46.746Z,0
2022-09-03T02:41:06.797Z,0
2022-09-03T02:47:29.750Z,0
2022-09-03T02:53:49.737Z,0
2022-09-03T03:00:12.761Z,0
2022-09-03T03:06:32.733Z,0
2022-09-03T03:12:55.777Z,0
2022-09-03T03:19:15.752Z,0
2022-09-03T03:25:38.749Z,0
2022-09-03T03:31:58.781Z,0
2022-09-03T03:38:21.860Z,0
2022-09-03T03:54:29.690Z,0
2022-09-03T04:00:49.778Z,0
2022-09-03T04:07:12.748Z,0
2022-09-03T04:13:32.742Z,0
2022-09-03T04:19:55.734Z,0
2022-09-03T04:26:15.763Z,0
2022-09-03T04:32:38.728Z,0
2022-09-03T04:38:58.722Z,0
2022-09-03T04:45:21.745Z,0
2022-09-03T04:51:41.745Z,0
2022-09-03T04:58:04.764Z,0
2022-09-03T05:04:24.748Z,0
2022-09-03T05:10:47.723Z,5.62
2022-09-03T05:17:07.774Z,5.62
2022-09-03T05:23:33.214Z,5.62
2022-09-03T05:29:50.809Z,11.25
2022-09-03T05:36:13.729Z,11.25
2022-09-03T05:42:33.740Z,11.25
2022-09-03T05:48:56.751Z,16.88
2022-09-03T05:55:16.733Z,16.88
2022-09-03T06:01:39.859Z,16.88
2022-09-03T06:07:59.726Z,22.5
2022-09-03T06:14:22.736Z,22.5
2022-09-03T06:20:42.784Z,28.12
2022-09-03T06:27:05.725Z,28.12
2022-09-03T06:33:25.763Z,33.75
2022-09-03T06:39:48.843Z,39.38
2022-09-03T06:46:08.803Z,45
2022-09-03T06:52:31.764Z,45
2022-09-03T06:58:51.742Z,39.38
2022-09-03T07:05:14.809Z,39.38
2022-09-03T07:11:34.755Z,45
2022-09-03T07:17:57.739Z,45
2022-09-03T07:24:17.761Z,33.75
2022-09-03T07:30:40.746Z,33.75
2022-09-03T07:37:00.806Z,39.38
2022-09-03T07:43:23.794Z,39.38
2022-09-03T07:49:43.780Z,39.38
2022-09-03T07:56:06.745Z,33.75
2022-09-03T08:02:26.762Z,28.12
2022-09-03T08:08:49.806Z,22.5
2022-09-03T08:15:09.782Z,22.5
2022-09-03T08:21:32.839Z,28.12
2022-09-03T08:27:52.842Z,28.12
2022-09-03T08:34:15.753Z,33.75
2022-09-03T08:40:35.818Z,33.75
2022-09-03T08:46:58.826Z,45
2022-09-03T08:53:18.752Z,56.25
2022-09-03T08:59:41.772Z,56.25
2022-09-03T09:06:01.770Z,56.25
2022-09-03T09:30:03.276Z,73.12
2022-09-03T09:36:22.745Z,78.75
2022-09-03T09:42:45.791Z,84.38
2022-09-03T09:49:05.817Z,84.38
2022-09-03T09:55:28.738Z,84.38
2022-09-03T10:01:48.855Z,95.62
2022-09-03T10:08:11.752Z,106.88
2022-09-03T10:14:31.780Z,95.62
2022-09-03T10:20:54.756Z,84.38
2022-09-03T10:27:14.729Z,84.38
2022-09-03T10:33:37.828Z,140.62
2022-09-03T10:39:57.758Z,118.12
2022-09-03T10:46:24.109Z,101.25
2022-09-03T10:52:40.740Z,84.38
2022-09-03T10:59:03.749Z,90
2022-09-03T11:05:23.796Z,106.88
2022-09-03T11:11:46.770Z,106.88
2022-09-03T11:18:06.789Z,95.62
2022-09-03T11:24:29.743Z,90
2022-09-03T11:30:49.853Z,135
2022-09-03T11:37:12.791Z,73.12
2022-09-03T11:43:32.730Z,56.25
2022-09-03T11:49:55.772Z,56.25
2022-09-03T11:56:15.744Z,123.75
2022-09-03T12:02:38.791Z,123.75
2022-09-03T12:08:58.774Z,45
2022-09-03T12:15:21.721Z,95.62
2022-09-03T12:21:41.792Z,129.38
2022-09-03T12:28:04.737Z,135
2022-09-03T12:34:24.736Z,135
2022-09-03T12:47:37.863Z,140.62
2022-09-03T12:53:30.769Z,140.62
2022-09-03T12:59:50.731Z,140.62
2022-09-03T13:06:13.738Z,146.25
2022-09-03T13:12:33.766Z,146.25
2022-09-03T13:18:56.733Z,146.25
2022-09-03T13:25:16.770Z,45
2022-09-03T13:31:39.754Z,146.25
2022-09-03T13:37:59.747Z,146.25
2022-09-03T13:44:22.760Z,140.62
2022-09-03T13:50:42.728Z,45
2022-09-03T13:57:05.773Z,140.62
2022-09-03T14:03:25.824Z,146.25
2022-09-03T14:09:48.731Z,135
2022-09-03T14:16:08.766Z,135
2022-09-03T14:22:31.729Z,112.5
2022-09-03T14:28:51.782Z,129.38
2022-09-03T14:35:14.728Z,73.12
2022-09-03T14:41:34.743Z,67.5
2022-09-03T14:47:57.771Z,73.12
2022-09-03T14:54:17.728Z,90
2022-09-03T15:17:23.743Z,56.25
2022-09-03T15:23:46.733Z,45
2022-09-03T15:30:06.766Z,39.38
2022-09-03T15:36:29.722Z,28.12
2022-09-03T15:42:49.728Z,28.12
2022-09-03T15:49:12.742Z,28.12
2022-09-03T15:55:32.723Z,22.5
2022-09-03T16:01:55.772Z,11.25
2022-09-03T16:08:15.731Z,0
2022-09-03T16:14:38.733Z,0
2022-09-03T16:20:58.744Z,0
2022-09-03T16:27:21.738Z,0
2022-09-03T16:33:41.773Z,0
2022-09-03T16:40:04.768Z,5.62
2022-09-03T16:46:24.739Z,5.62
2022-09-03T16:52:47.737Z,5.62
2022-09-03T16:59:07.744Z,0
2022-09-03T17:05:30.784Z,0
2022-09-03T17:11:50.730Z,5.62
2022-09-03T17:18:13.735Z,5.62
2022-09-03T17:24:33.789Z,5.62
2022-09-03T17:30:56.774Z,5.62
2022-09-03T17:37:16.759Z,5.62
2022-09-03T17:43:39.725Z,5.62
2022-09-03T17:49:59.779Z,5.62
2022-09-03T17:56:22.731Z,5.62
2022-09-03T18:02:43.901Z,5.62
2022-09-03T18:09:06.762Z,0
2022-09-03T18:15:26.716Z,0
2022-09-03T18:21:49.757Z,0
2022-09-03T18:28:09.719Z,0
2022-09-03T18:34:32.723Z,0
2022-09-03T18:40:52.749Z,0
2022-09-03T18:48:01.342Z,0
2022-09-03T18:53:35.766Z,0
2022-09-03T18:59:58.725Z,0
2022-09-03T19:06:18.718Z,0
2022-09-03T19:12:41.740Z,0
2022-09-03T19:19:01.717Z,0
2022-09-03T19:25:24.768Z,0
2022-09-03T19:31:44.719Z,0
2022-09-03T19:38:07.893Z,0
2022-09-03T19:44:27.724Z,0
2022-09-03T19:50:50.735Z,0
2022-09-03T19:57:10.744Z,0
2022-09-03T20:03:33.722Z,0
2022-09-03T20:09:53.761Z,0
2022-09-03T20:16:16.810Z,0
2022-09-03T20:22:36.759Z,0
2022-09-03T20:28:59.746Z,0
2022-09-03T20:35:19.745Z,0
2022-09-03T20:58:43.860Z,0
2022-09-03T21:05:06.736Z,0
2022-09-03T21:11:26.723Z,0
2022-09-03T21:17:49.750Z,0
2022-09-03T21:24:09.725Z,0
2022-09-03T21:30:32.814Z,0
2022-09-03T21:36:52.736Z,0
2022-09-03T21:43:15.728Z,0
2022-09-03T21:49:35.753Z,0
2022-09-03T21:55:58.730Z,0
2022-09-03T22:20:12.721Z,0
2022-09-03T22:26:32.733Z,0
2022-09-03T22:32:55.722Z,0
2022-09-03T22:39:15.753Z,0
2022-09-03T22:45:38.796Z,0
2022-09-03T22:51:58.753Z,0
2022-09-03T22:58:21.721Z,0
2022-09-03T23:04:41.783Z,0
2022-09-03T23:11:04.726Z,0
2022-09-03T23:17:24.764Z,0
2022-09-03T23:23:43.743Z,0
2022-09-03T23:30:03.759Z,0
2022-09-03T23:36:43.514Z,0
2022-09-03T23:42:46.728Z,0
2022-09-03T23:49:09.762Z,0
2022-09-03T23:55:29.719Z,0
